createdAt,value
2019-04-03T00:00:13.343Z,25.10
2019-04-03T00:02:41.951Z,25.00
2019-04-03T00:05:10.513Z,24.50
2019-04-03T00:07:39.083Z,24.40
2019-04-03T00:10:07.768Z,24.30
2019-04-03T00:12:36.698Z,24.60
2019-04-03T00:15:05.832Z,24.50
2019-04-03T00:17:34.540Z,24.50
2019-04-03T00:20:03.781Z,24.90
2019-04-03T00:22:32.406Z,24.80
2019-04-03T00:25:01.032Z,24.80
2019-04-03T00:27:29.530Z,24.90
2019-04-03T00:29:58.016Z,24.80
2019-04-03T00:32:26.493Z,24.80
2019-04-03T00:34:54.985Z,24.50
2019-04-03T00:37:23.762Z,24.10
2019-04-03T00:39:52.520Z,24.40
2019-04-03T00:42:24.178Z,24.70
2019-04-03T00:44:54.720Z,25.00
2019-04-03T00:47:25.116Z,24.90
2019-04-03T00:49:53.299Z,25.10
2019-04-03T00:52:21.850Z,25.20
2019-04-03T00:54:50.482Z,25.00
2019-04-03T00:57:18.902Z,25.10
2019-04-03T00:59:47.390Z,24.90
2019-04-03T01:02:16.499Z,24.90
2019-04-03T01:04:45.333Z,24.80
2019-04-03T01:07:13.818Z,24.80
2019-04-03T01:09:42.460Z,25.00
2019-04-03T01:12:10.923Z,24.90
2019-04-03T01:14:39.475Z,24.60
2019-04-03T01:17:08.066Z,24.60
2019-04-03T01:19:37.022Z,24.50
2019-04-03T01:22:07.258Z,24.60
2019-04-03T01:24:36.755Z,24.60
2019-04-03T01:27:05.872Z,24.60
2019-04-03T01:29:34.326Z,24.20
2019-04-03T01:32:02.855Z,24.00
2019-04-03T01:34:31.406Z,24.20
2019-04-03T01:36:59.839Z,24.40
2019-04-03T01:39:28.288Z,24.30
2019-04-03T01:41:56.729Z,24.40
2019-04-03T01:44:25.349Z,24.30
2019-04-03T01:46:53.825Z,23.70
2019-04-03T01:49:22.317Z,24.30
2019-04-03T01:54:19.169Z,24.00
2019-04-03T01:56:47.736Z,24.30
2019-04-03T01:59:23.527Z,24.40
2019-04-03T02:01:52.015Z,24.20
2019-04-03T02:04:20.502Z,24.50
2019-04-03T02:06:49.135Z,24.30
2019-04-03T02:09:17.819Z,24.30
2019-04-03T02:11:47.629Z,24.30
2019-04-03T02:14:16.757Z,24.50
2019-04-03T02:21:41.783Z,24.10
2019-04-03T02:24:10.219Z,23.50
2019-04-03T02:26:38.695Z,23.80
2019-04-03T02:29:08.695Z,23.70
2019-04-03T02:31:37.535Z,23.70
2019-04-03T02:34:06.241Z,23.90
2019-04-03T02:36:34.835Z,23.80
2019-04-03T02:39:04.007Z,23.90
2019-04-03T02:44:02.709Z,23.80
2019-04-03T02:46:31.313Z,23.90
2019-04-03T02:48:59.974Z,24.00
2019-04-03T02:51:28.452Z,23.40
2019-04-03T02:53:56.875Z,23.40
2019-04-03T02:56:25.539Z,23.50
2019-04-03T02:58:55.050Z,23.70
2019-04-03T03:03:52.634Z,23.50
2019-04-03T03:06:21.215Z,23.60
2019-04-03T03:08:49.877Z,23.80
2019-04-03T03:11:18.704Z,23.70
2019-04-03T03:13:47.349Z,23.80
2019-04-03T03:16:18.025Z,23.90
2019-04-03T03:21:14.423Z,24.10
2019-04-03T03:23:43.003Z,23.90
2019-04-03T03:26:11.548Z,24.00
2019-04-03T03:28:40.095Z,23.50
2019-04-03T03:31:08.675Z,23.40
2019-04-03T03:33:40.208Z,23.30
2019-04-03T03:36:08.218Z,23.10
2019-04-03T03:38:39.473Z,23.00
2019-04-03T03:41:07.006Z,23.10
2019-04-03T03:46:05.822Z,23.10
2019-04-03T03:48:34.439Z,22.60
2019-04-03T03:51:04.168Z,22.40
2019-04-03T03:53:33.221Z,22.30
2019-04-03T03:56:02.052Z,22.40
2019-04-03T03:58:30.517Z,22.40
2019-04-03T04:01:00.443Z,22.40
2019-04-03T04:03:29.546Z,22.20
2019-04-03T04:05:58.174Z,22.60
2019-04-03T04:08:26.680Z,22.90
2019-04-03T04:10:58.209Z,23.20
2019-04-03T04:15:54.154Z,23.00
2019-04-03T04:18:24.122Z,23.20
2019-04-03T04:20:52.991Z,22.60
2019-04-03T04:23:24.277Z,22.80
2019-04-03T04:25:51.771Z,23.10
2019-04-03T04:28:20.368Z,23.10
2019-04-03T04:30:48.915Z,23.20
2019-04-03T04:33:17.789Z,23.30
2019-04-03T04:35:46.503Z,22.80
2019-04-03T04:38:15.185Z,23.00
2019-04-03T04:40:45.932Z,22.90
2019-04-03T04:43:14.332Z,23.10
2019-04-03T04:45:43.299Z,23.00
2019-04-03T04:48:11.913Z,23.30
2019-04-03T04:50:40.800Z,23.20
2019-04-03T04:53:09.482Z,23.10
2019-04-03T04:55:38.535Z,23.90
2019-04-03T04:58:07.419Z,23.00
2019-04-03T05:03:04.879Z,23.40
2019-04-03T05:08:02.641Z,22.90
2019-04-03T05:10:31.918Z,22.80
2019-04-03T05:13:00.705Z,22.80
2019-04-03T05:17:58.268Z,23.10
2019-04-03T05:20:27.254Z,23.10
2019-04-03T05:22:55.859Z,23.40
2019-04-03T05:25:25.181Z,23.60
2019-04-03T05:27:53.790Z,23.60
2019-04-03T05:30:30.015Z,23.40
2019-04-03T05:32:59.609Z,23.30
2019-04-03T05:35:28.312Z,23.10
2019-04-03T05:37:56.809Z,22.70
2019-04-03T05:40:26.211Z,23.30
2019-04-03T05:42:55.254Z,23.40
2019-04-03T05:45:23.812Z,23.00
2019-04-03T05:47:52.509Z,23.40
2019-04-03T05:50:21.105Z,23.50
2019-04-03T05:52:49.677Z,23.30
2019-04-03T05:55:18.215Z,23.60
2019-04-03T05:57:47.179Z,23.60
2019-04-03T06:00:16.171Z,23.20
2019-04-03T06:02:44.858Z,23.10
2019-04-03T06:05:13.393Z,23.10
2019-04-03T06:07:41.931Z,23.30
2019-04-03T06:12:39.152Z,24.40
2019-04-03T06:17:37.935Z,23.90
2019-04-03T06:20:06.532Z,23.90
2019-04-03T06:22:35.117Z,23.50
2019-04-03T06:25:04.869Z,24.00
2019-04-03T06:27:34.514Z,24.00
2019-04-03T06:30:03.347Z,23.80
2019-04-03T06:32:32.258Z,23.90
2019-04-03T06:35:00.860Z,23.90
2019-04-03T06:37:29.379Z,24.70
2019-04-03T06:39:57.952Z,24.90
2019-04-03T06:42:26.457Z,24.80
2019-04-03T06:44:54.971Z,24.70
2019-04-03T06:47:23.575Z,24.70
2019-04-03T06:52:21.491Z,25.10
2019-04-03T06:57:19.063Z,25.20
2019-04-03T06:59:48.699Z,25.30
2019-04-03T07:02:17.369Z,25.20
2019-04-03T07:07:14.105Z,24.90
2019-04-03T07:09:42.715Z,25.50
2019-04-03T07:12:11.206Z,25.50
2019-04-03T07:14:39.708Z,26.00
2019-04-03T07:22:06.504Z,26.10
2019-04-03T07:24:35.120Z,26.50
2019-04-03T07:27:05.968Z,26.40
2019-04-03T07:29:34.931Z,26.30
2019-04-03T07:32:04.509Z,26.60
